Time;durP1;ratioP1;P1;durP2;ratioP2;P2;SDS_P1;SDS_P2;PMS_P1;PMS_P2;Temp;Humidity;BMP_temperature;BMP_pressure;BME280_temperature;BME280_humidity;BME280_pressure;Samples;Min_cycle;Max_cycle;Signal;HPM_P1;HPM_P2
2022/04/23 00:01:09;;;;;;;1.33;0.70;;;;;;;;;;5051432;28;20053;-68
2022/04/23 00:03:40;;;;;;;1.30;0.80;;;;;;;;;;5051419;28;20539;-68
2022/04/23 00:06:11;;;;;;;2.85;0.90;;;;;;;;;;5051331;28;20524;-68
2022/04/23 00:08:41;;;;;;;1.38;0.80;;;;;;;;;;5024440;28;20053;-71
2022/04/23 00:11:12;;;;;;;1.40;0.90;;;;;;;;;;5052673;28;20495;-68
2022/04/23 00:13:43;;;;;;;1.80;0.93;;;;;;;;;;5071403;28;20044;-71
2022/04/23 00:16:15;;;;;;;2.38;1.05;;;;;;;;;;5037963;28;20496;-68
2022/04/23 00:18:46;;;;;;;2.35;1.20;;;;;;;;;;5021750;28;20056;-69
2022/04/23 00:21:21;;;;;;;4.82;1.45;;;;;;;;;;5037610;28;20057;-67
2022/04/23 00:23:51;;;;;;;3.13;1.42;;;;;;;;;;5071194;28;20052;-68
2022/04/23 00:26:22;;;;;;;1.70;1.20;;;;;;;;;;5070898;28;20040;-68
2022/04/23 00:28:53;;;;;;;1.67;0.98;;;;;;;;;;5069891;28;20053;-68
2022/04/23 00:31:26;;;;;;;2.10;0.98;;;;;;;;;;5071141;28;20091;-67
2022/04/23 00:33:57;;;;;;;2.20;1.08;;;;;;;;;;5070804;28;20044;-67
2022/04/23 00:36:28;;;;;;;2.58;1.10;;;;;;;;;;5072068;28;20059;-68
2022/04/23 00:38:59;;;;;;;2.72;1.30;;;;;;;;;;5073248;28;20480;-69
2022/04/23 00:41:48;;;;;;;2.42;1.33;;;;;;;;;;5072964;28;20491;-69
2022/04/23 00:44:19;;;;;;;4.10;1.92;;;;;;;;;;5054326;28;20063;-69
2022/04/23 00:46:49;;;;;;;2.78;1.35;;;;;;;;;;5067337;28;20048;-69
2022/04/23 00:49:20;;;;;;;4.18;1.75;;;;;;;;;;5092984;28;20067;-69
2022/04/23 00:51:53;;;;;;;2.97;1.02;;;;;;;;;;5070599;28;20404;-68
2022/04/23 00:54:23;;;;;;;;;;;;;;;;;;5071010;28;20048;-71
2022/04/23 00:56:53;;;;;;;2.10;0.70;;;;;;;;;;5070405;28;19920;-71
2022/04/23 00:59:26;;;;;;;1.25;0.85;;;;;;;;;;5070766;28;20094;-67
2022/04/23 01:01:57;;;;;;;1.92;0.88;;;;;;;;;;5038667;28;20762;-68
2022/04/23 01:04:30;;;;;;;1.58;0.90;;;;;;;;;;4997541;28;20169;-68
2022/04/23 01:07:04;;;;;;;2.03;0.57;;;;;;;;;;5030446;28;20060;-71
2022/04/23 01:09:35;;;;;;;0.95;0.77;;;;;;;;;;5030215;28;20050;-67
2022/04/23 01:12:10;;;;;;;1.25;0.40;;;;;;;;;;5030526;28;20440;-67
2022/04/23 01:15:01;;;;;;;2.20;0.90;;;;;;;;;;5030509;28;20053;-68
2022/04/23 01:17:32;;;;;;;1.23;0.60;;;;;;;;;;5030240;28;20413;-72
2022/04/23 01:20:08;;;;;;;1.25;0.45;;;;;;;;;;5030290;28;20374;-73
2022/04/23 01:22:41;;;;;;;2.05;0.82;;;;;;;;;;5014166;28;20054;-67
2022/04/23 01:25:15;;;;;;;1.33;0.82;;;;;;;;;;5010207;28;20054;-70
2022/04/23 01:27:46;;;;;;;2.05;0.70;;;;;;;;;;5010197;28;20049;-70
2022/04/23 01:30:17;;;;;;;3.75;0.90;;;;;;;;;;4945211;28;20050;-66
2022/04/23 01:32:48;;;;;;;1.95;1.10;;;;;;;;;;4990732;28;20109;-67
2022/04/23 01:35:19;;;;;;;1.63;0.82;;;;;;;;;;4990860;28;20077;-66
2022/04/23 01:37:49;;;;;;;2.58;1.08;;;;;;;;;;4990696;28;20055;-66
2022/04/23 01:40:20;;;;;;;2.22;0.95;;;;;;;;;;4990123;28;20050;-65
2022/04/23 01:42:51;;;;;;;1.20;0.70;;;;;;;;;;4986954;28;20053;-66
2022/04/23 01:45:21;;;;;;;1.95;1.00;;;;;;;;;;4990355;28;20054;-65
2022/04/23 01:47:52;;;;;;;3.53;0.90;;;;;;;;;;5006795;28;20064;-67
2022/04/23 01:50:23;;;;;;;0.63;0.40;;;;;;;;;;5009988;28;20053;-73
2022/04/23 01:52:54;;;;;;;1.85;0.93;;;;;;;;;;4977282;28;20065;-70
2022/04/23 01:55:25;;;;;;;1.67;0.40;;;;;;;;;;4993795;28;20401;-70
2022/04/23 01:57:55;;;;;;;2.67;0.75;;;;;;;;;;5010079;28;20058;-69
2022/04/23 02:00:26;;;;;;;1.95;1.10;;;;;;;;;;5010149;28;20087;-68
2022/04/23 02:02:57;;;;;;;1.20;0.60;;;;;;;;;;5010154;28;20062;-70
2022/04/23 02:05:28;;;;;;;0.50;0.50;;;;;;;;;;5030894;28;20057;-68
2022/04/23 02:07:58;;;;;;;1.20;0.40;;;;;;;;;;5000382;28;20451;-70
2022/04/23 02:10:29;;;;;;;1.48;1.00;;;;;;;;;;5033261;28;20468;-68
2022/04/23 02:13:00;;;;;;;0.35;0.20;;;;;;;;;;5033471;28;20420;-68
2022/04/23 02:15:31;;;;;;;0.75;0.60;;;;;;;;;;5049601;28;20053;-67
2022/04/23 02:18:01;;;;;;;1.27;0.65;;;;;;;;;;5054670;28;20523;-67
2022/04/23 02:20:32;;;;;;;0.95;0.50;;;;;;;;;;5101479;28;20071;-70
2022/04/23 02:23:03;;;;;;;1.00;0.90;;;;;;;;;;5112425;28;20047;-69
2022/04/23 02:25:35;;;;;;;2.63;0.60;;;;;;;;;;5112374;28;20039;-69
2022/04/23 02:28:05;;;;;;;3.38;0.63;;;;;;;;;;5077164;28;20082;-67
2022/04/23 02:30:36;;;;;;;0.50;0.50;;;;;;;;;;5112084;28;20490;-68
2022/04/23 02:33:07;;;;;;;2.08;1.75;;;;;;;;;;5069048;28;20048;-68
2022/04/23 02:35:39;;;;;;;2.33;1.92;;;;;;;;;;5069394;28;20069;-69
2022/04/23 02:38:10;;;;;;;1.25;0.70;;;;;;;;;;5069300;28;20060;-69
2022/04/23 02:40:40;;;;;;;2.90;0.70;;;;;;;;;;5029092;28;20046;-69
2022/04/23 02:43:12;;;;;;;1.23;0.60;;;;;;;;;;5029037;28;20053;-68
2022/04/23 02:45:44;;;;;;;1.00;0.60;;;;;;;;;;4996657;28;20121;-68
2022/04/23 02:48:16;;;;;;;1.90;0.70;;;;;;;;;;5013757;28;20060;-67
2022/04/23 02:50:46;;;;;;;0.98;0.60;;;;;;;;;;5029198;28;20045;-69
2022/04/23 02:53:17;;;;;;;2.22;1.02;;;;;;;;;;5032782;28;20076;-67
2022/04/23 02:55:48;;;;;;;1.52;0.70;;;;;;;;;;5012785;28;20057;-68
2022/04/23 02:58:19;;;;;;;2.28;0.95;;;;;;;;;;5012998;28;20054;-73
2022/04/23 03:00:49;;;;;;;2.72;0.57;;;;;;;;;;4954718;29;20062;-68
2022/04/23 03:03:21;;;;;;;1.75;0.82;;;;;;;;;;4954230;29;20055;-68
2022/04/23 03:05:53;;;;;;;2.92;0.68;;;;;;;;;;4954497;29;20055;-67
2022/04/23 03:08:24;;;;;;;1.75;1.30;;;;;;;;;;4953633;29;20044;-67
2022/04/23 03:10:54;;;;;;;1.50;0.85;;;;;;;;;;4954492;29;20054;-67
2022/04/23 03:13:25;;;;;;;4.95;0.98;;;;;;;;;;4954379;29;20070;-71
2022/04/23 03:15:56;;;;;;;3.53;0.52;;;;;;;;;;4938097;29;20602;-67
2022/04/23 03:18:27;;;;;;;1.20;0.63;;;;;;;;;;4975614;28;20059;-69
2022/04/23 03:20:58;;;;;;;4.03;1.10;;;;;;;;;;4993042;28;20054;-70
2022/04/23 03:23:29;;;;;;;2.30;0.82;;;;;;;;;;4992891;28;20206;-66
2022/04/23 03:26:00;;;;;;;2.80;0.80;;;;;;;;;;4992721;28;20054;-69
2022/04/23 03:28:31;;;;;;;1.23;0.73;;;;;;;;;;4992827;28;20069;-69
2022/04/23 03:31:05;;;;;;;0.90;0.60;;;;;;;;;;4953735;29;20055;-69
2022/04/23 03:33:36;;;;;;;3.40;0.45;;;;;;;;;;4964795;28;21257;-67
2022/04/23 03:36:06;;;;;;;3.03;0.90;;;;;;;;;;4973228;28;20051;-68
2022/04/23 03:38:37;;;;;;;1.20;0.70;;;;;;;;;;4973236;28;20058;-67
2022/04/23 03:41:07;;;;;;;1.98;0.93;;;;;;;;;;4984106;28;20057;-68
2022/04/23 03:43:38;;;;;;;1.88;0.90;;;;;;;;;;4976458;28;20073;-67
2022/04/23 03:46:09;;;;;;;1.70;0.98;;;;;;;;;;4992591;28;20054;-67
2022/04/23 03:48:40;;;;;;;2.40;0.50;;;;;;;;;;4992676;28;20414;-66
2022/04/23 03:51:11;;;;;;;2.38;1.40;;;;;;;;;;4992538;28;20046;-66
2022/04/23 03:53:41;;;;;;;1.42;1.25;;;;;;;;;;5003254;28;20062;-65
2022/04/23 03:56:12;;;;;;;2.30;0.80;;;;;;;;;;5012090;28;20053;-67
2022/04/23 03:58:43;;;;;;;2.03;0.70;;;;;;;;;;5011762;28;20046;-66
2022/04/23 04:01:14;;;;;;;2.72;0.60;;;;;;;;;;5012061;28;20615;-67
2022/04/23 04:03:45;;;;;;;3.20;1.10;;;;;;;;;;4979370;28;20054;-67
2022/04/23 04:06:15;;;;;;;3.40;2.00;;;;;;;;;;5011763;28;20061;-66
2022/04/23 04:08:50;;;;;;;3.40;1.73;;;;;;;;;;5033564;28;20060;-65
2022/04/23 04:11:21;;;;;;;2.38;0.80;;;;;;;;;;5035289;28;20396;-64
2022/04/23 04:13:53;;;;;;;2.58;1.52;;;;;;;;;;5087142;28;20056;-65
2022/04/23 04:16:23;;;;;;;2.63;1.48;;;;;;;;;;5091404;28;20056;-65
2022/04/23 04:18:54;;;;;;;2.30;1.08;;;;;;;;;;5091379;28;20056;-64
2022/04/23 04:21:25;;;;;;;2.00;1.05;;;;;;;;;;5058149;28;20048;-64
2022/04/23 04:23:56;;;;;;;2.85;1.15;;;;;;;;;;5091244;28;20052;-64
2022/04/23 04:26:27;;;;;;;3.03;1.45;;;;;;;;;;5057762;28;20122;-65
2022/04/23 04:28:57;;;;;;;1.70;1.10;;;;;;;;;;5050749;28;20055;-66
2022/04/23 04:31:47;;;;;;;1.55;0.60;;;;;;;;;;5050976;28;20451;-65
2022/04/23 04:34:20;;;;;;;2.70;1.10;;;;;;;;;;5001703;28;20060;-65
2022/04/23 04:36:52;;;;;;;1.40;0.80;;;;;;;;;;5051177;28;20053;-65
2022/04/23 04:39:23;;;;;;;2.25;0.70;;;;;;;;;;5034710;28;20045;-66
2022/04/23 04:41:53;;;;;;;1.50;1.00;;;;;;;;;;5050727;28;20057;-66
2022/04/23 04:44:24;;;;;;;2.78;0.98;;;;;;;;;;4969879;28;20053;-65
2022/04/23 04:46:54;;;;;;;1.83;1.10;;;;;;;;;;5050538;28;20049;-65
2022/04/23 04:49:26;;;;;;;2.50;0.95;;;;;;;;;;4969992;28;20053;-66
2022/04/23 04:51:57;;;;;;;2.55;1.77;;;;;;;;;;5046871;28;20041;-66
2022/04/23 04:54:28;;;;;;;0.90;0.90;;;;;;;;;;4991257;28;20819;-69
2022/04/23 04:56:59;;;;;;;0.52;0.52;;;;;;;;;;4982866;28;20057;-66
2022/04/23 04:59:33;;;;;;;0.50;0.30;;;;;;;;;;5030504;28;20053;-69
2022/04/23 05:02:04;;;;;;;0.90;0.63;;;;;;;;;;5030562;28;20140;-68
2022/04/23 05:04:35;;;;;;;1.25;0.57;;;;;;;;;;4981207;28;20046;-67
2022/04/23 05:07:05;;;;;;;0.50;0.50;;;;;;;;;;5011385;28;20053;-68
2022/04/23 05:09:36;;;;;;;0.73;0.30;;;;;;;;;;5050079;28;20435;-66
2022/04/23 05:12:07;;;;;;;0.50;0.20;;;;;;;;;;5050421;28;20456;-72
2022/04/23 05:14:38;;;;;;;0.88;0.52;;;;;;;;;;5049731;28;20048;-70
2022/04/23 05:17:14;;;;;;;2.70;0.65;;;;;;;;;;5050079;28;20049;-66
2022/04/23 05:19:44;;;;;;;1.30;0.60;;;;;;;;;;5050643;28;20057;-65
2022/04/23 05:22:15;;;;;;;0.88;0.82;;;;;;;;;;5050182;28;20049;-65
2022/04/23 05:24:46;;;;;;;1.10;0.75;;;;;;;;;;5050251;28;20056;-65
2022/04/23 05:27:16;;;;;;;2.40;0.70;;;;;;;;;;5017393;28;20084;-64
2022/04/23 05:29:47;;;;;;;1.35;0.77;;;;;;;;;;5018118;28;20050;-64
2022/04/23 05:32:18;;;;;;;1.42;0.90;;;;;;;;;;5025432;28;20082;-64
2022/04/23 05:34:48;;;;;;;3.90;0.47;;;;;;;;;;5049839;28;20417;-64
2022/04/23 05:37:19;;;;;;;1.63;0.45;;;;;;;;;;5010121;28;20394;-64
2022/04/23 05:39:49;;;;;;;0.93;0.70;;;;;;;;;;5010285;28;20057;-63
2022/04/23 05:42:20;;;;;;;0.70;0.50;;;;;;;;;;5020938;28;20049;-63
2022/04/23 05:44:51;;;;;;;0.80;0.55;;;;;;;;;;4996729;28;20049;-64
2022/04/23 05:47:21;;;;;;;1.33;0.70;;;;;;;;;;4990353;28;20065;-63
2022/04/23 05:49:52;;;;;;;10.85;0.90;;;;;;;;;;4958275;28;20065;-63
2022/04/23 05:52:23;;;;;;;1.17;0.85;;;;;;;;;;4974006;28;20049;-63
2022/04/23 05:54:53;;;;;;;2.30;1.15;;;;;;;;;;4990277;28;20062;-63
2022/04/23 05:57:24;;;;;;;1.10;0.70;;;;;;;;;;4990626;28;20131;-63
2022/04/23 05:59:56;;;;;;;1.05;0.88;;;;;;;;;;4974763;28;20490;-63
2022/04/23 06:02:27;;;;;;;0.85;0.70;;;;;;;;;;4990347;28;20066;-63
2022/04/23 06:04:58;;;;;;;2.50;1.00;;;;;;;;;;4955146;28;20058;-62
2022/04/23 06:07:28;;;;;;;1.80;0.88;;;;;;;;;;4922974;28;20093;-62
2022/04/23 06:09:59;;;;;;;1.92;0.77;;;;;;;;;;4971295;28;20066;-62
2022/04/23 06:12:31;;;;;;;1.70;0.70;;;;;;;;;;4971026;28;20058;-62
2022/04/23 06:15:02;;;;;;;1.73;0.80;;;;;;;;;;4981214;28;20521;-62
2022/04/23 06:17:33;;;;;;;1.80;0.85;;;;;;;;;;4957807;28;20054;-62
2022/04/23 06:20:05;;;;;;;2.65;0.50;;;;;;;;;;4990184;28;20375;-62
2022/04/23 06:22:36;;;;;;;4.80;1.00;;;;;;;;;;4970610;28;20043;-62
2022/04/23 06:25:07;;;;;;;1.30;0.73;;;;;;;;;;4992167;28;20058;-62
2022/04/23 06:27:38;;;;;;;1.50;0.93;;;;;;;;;;4979572;28;20050;-61
2022/04/23 06:30:09;;;;;;;4.20;0.98;;;;;;;;;;4993582;28;20094;-62
2022/04/23 06:32:40;;;;;;;7.50;0.80;;;;;;;;;;4993886;28;20466;-62
2022/04/23 06:35:10;;;;;;;1.55;0.52;;;;;;;;;;5005119;28;20437;-62
2022/04/23 06:37:42;;;;;;;2.75;1.02;;;;;;;;;;5013396;28;20057;-62
2022/04/23 06:40:13;;;;;;;2.13;1.00;;;;;;;;;;5013458;28;20565;-62
2022/04/23 06:42:44;;;;;;;1.65;0.80;;;;;;;;;;4980363;28;20058;-63
2022/04/23 06:45:14;;;;;;;1.98;0.88;;;;;;;;;;5013218;28;20046;-62
2022/04/23 06:47:45;;;;;;;1.08;0.70;;;;;;;;;;4938672;29;20063;-62
2022/04/23 06:50:16;;;;;;;3.53;1.50;;;;;;;;;;4993561;28;20057;-62
2022/04/23 06:52:47;;;;;;;1.85;1.10;;;;;;;;;;4993541;28;20054;-62
2022/04/23 06:55:17;;;;;;;5.65;1.45;;;;;;;;;;4993285;28;20089;-62
2022/04/23 06:57:48;;;;;;;8.43;1.90;;;;;;;;;;4945532;28;20055;-62
2022/04/23 07:01:07;;;;;;;3.63;0.60;;;;;;;;;;5122516;27;794338;-65
2022/04/23 07:03:38;;;;;;;4.65;0.68;;;;;;;;;;5068275;28;20063;-64
2022/04/23 07:06:11;;;;;;;1.55;0.70;;;;;;;;;;5087296;28;20044;-63
2022/04/23 07:08:44;;;;;;;3.58;0.82;;;;;;;;;;5087448;28;20048;-63
2022/04/23 07:11:14;;;;;;;;;;;;;;;;;;5087915;28;20056;-63
2022/04/23 07:13:44;;;;;;;1.50;0.65;;;;;;;;;;5053755;28;20023;-64
2022/04/23 07:16:16;;;;;;;1.45;0.80;;;;;;;;;;5087473;28;20407;-63
2022/04/23 07:18:47;;;;;;;3.40;0.85;;;;;;;;;;5087182;28;20056;-64
2022/04/23 07:21:17;;;;;;;2.40;0.80;;;;;;;;;;5037393;28;20065;-63
2022/04/23 07:26:50;;;;;;;3.10;0.90;;;;;;;;;;5007601;28;20057;-64
2022/04/23 07:29:21;;;;;;;4.03;1.70;;;;;;;;;;4991335;28;20050;-63
2022/04/23 07:31:51;;;;;;;4.25;1.88;;;;;;;;;;4991495;28;20058;-63
2022/04/23 07:37:31;;;;;;;6.95;2.58;;;;;;;;;;5007237;28;20526;-63
2022/04/23 07:40:10;;;;;;;5.22;2.15;;;;;;;;;;4958589;28;20053;-63
2022/04/23 07:42:40;;;;;;;5.93;2.70;;;;;;;;;;4975557;28;20058;-63
2022/04/23 07:45:11;;;;;;;5.78;2.40;;;;;;;;;;5026883;28;20108;-63
2022/04/23 07:47:42;;;;;;;6.65;2.63;;;;;;;;;;4994084;28;20409;-63
2022/04/23 07:50:13;;;;;;;5.10;2.08;;;;;;;;;;5026766;28;20057;-63
2022/04/23 07:52:44;;;;;;;6.20;2.85;;;;;;;;;;5026624;28;20514;-63
2022/04/23 07:55:14;;;;;;;3.60;1.33;;;;;;;;;;5026615;28;20069;-63
2022/04/23 07:57:45;;;;;;;3.13;1.73;;;;;;;;;;5006451;28;20057;-63
2022/04/23 08:00:16;;;;;;;6.25;1.50;;;;;;;;;;5006683;28;20054;-63
2022/04/23 08:02:47;;;;;;;4.85;1.58;;;;;;;;;;5053942;28;20055;-63
2022/04/23 08:05:18;;;;;;;3.08;1.08;;;;;;;;;;5065909;28;20056;-63
2022/04/23 08:07:49;;;;;;;2.58;1.10;;;;;;;;;;5016610;28;20157;-63
2022/04/23 08:10:19;;;;;;;2.75;1.02;;;;;;;;;;5014586;28;20063;-63
2022/04/23 08:12:50;;;;;;;5.68;1.00;;;;;;;;;;5052640;28;20057;-63
2022/04/23 08:15:21;;;;;;;5.28;1.65;;;;;;;;;;5048800;28;20061;-63
2022/04/23 08:17:51;;;;;;;3.50;1.50;;;;;;;;;;4983892;28;20049;-63
2022/04/23 08:20:22;;;;;;;2.95;1.48;;;;;;;;;;5032694;28;20054;-63
2022/04/23 08:22:53;;;;;;;6.85;1.73;;;;;;;;;;5032577;28;20068;-63
2022/04/23 08:25:23;;;;;;;3.65;1.20;;;;;;;;;;5032632;28;20060;-63
2022/04/23 08:30:34;;;;;;;3.00;1.02;;;;;;;;;;5032486;28;20089;-63
2022/04/23 08:30:47;;;;;;;3.33;1.42;;;;;;;;;;5032558;28;20065;-63
2022/04/23 08:33:18;;;;;;;3.17;1.33;;;;;;;;;;5032341;28;20536;-63
2022/04/23 08:35:50;;;;;;;4.30;1.70;;;;;;;;;;5005819;28;20065;-63
2022/04/23 08:38:21;;;;;;;3.25;1.38;;;;;;;;;;5032331;28;20041;-63
2022/04/23 08:40:52;;;;;;;2.58;1.33;;;;;;;;;;5015888;28;20060;-63
2022/04/23 08:43:22;;;;;;;4.57;1.40;;;;;;;;;;5026409;28;20055;-63
2022/04/23 08:45:52;;;;;;;4.15;1.60;;;;;;;;;;5051913;28;20060;-63
2022/04/23 08:48:27;;;;;;;6.50;1.88;;;;;;;;;;5035948;28;20060;-63
2022/04/23 08:50:59;;;;;;;4.55;1.48;;;;;;;;;;5052207;28;20458;-63
2022/04/23 08:53:32;;;;;;;3.92;1.75;;;;;;;;;;5066540;28;20080;-63
2022/04/23 08:56:02;;;;;;;2.53;1.25;;;;;;;;;;5038744;28;20053;-63
2022/04/23 08:58:33;;;;;;;5.05;1.63;;;;;;;;;;5071657;28;20570;-63
2022/04/23 09:01:04;;;;;;;6.10;1.75;;;;;;;;;;5071785;28;20487;-63
2022/04/23 09:03:34;;;;;;;4.60;1.77;;;;;;;;;;5071754;28;20088;-63
2022/04/23 09:06:05;;;;;;;5.55;1.80;;;;;;;;;;5031666;28;20075;-63
2022/04/23 09:08:36;;;;;;;5.72;1.73;;;;;;;;;;5018301;28;20055;-63
2022/04/23 09:11:06;;;;;;;4.90;2.88;;;;;;;;;;5002445;28;20061;-63
2022/04/23 09:13:37;;;;;;;5.65;2.38;;;;;;;;;;5051588;28;20049;-63
2022/04/23 09:24:48;;;;;;;13.65;6.22;;;;;;;;;;5014635;28;20150;-63
2022/04/23 09:27:19;;;;;;;8.90;4.20;;;;;;;;;;5031446;28;20162;-63
2022/04/23 09:30:05;;;;;;;5.68;2.80;;;;;;;;;;5031399;28;20408;-63
2022/04/23 09:32:37;;;;;;;6.97;3.67;;;;;;;;;;5031343;28;20049;-63
2022/04/23 09:35:12;;;;;;;5.38;1.92;;;;;;;;;;5031176;28;20045;-64
2022/04/23 09:40:32;;;;;;;5.10;1.90;;;;;;;;;;4998311;28;20059;-63
2022/04/23 09:43:08;;;;;;;2.97;1.58;;;;;;;;;;5002379;28;20063;-63
2022/04/23 09:45:42;;;;;;;4.28;1.83;;;;;;;;;;5045698;28;20067;-63
2022/04/23 09:48:13;;;;;;;7.28;3.20;;;;;;;;;;5093278;28;20044;-63
2022/04/23 09:50:47;;;;;;;6.18;2.33;;;;;;;;;;5093322;28;20048;-63
2022/04/23 09:53:19;;;;;;;7.47;2.47;;;;;;;;;;5074702;28;20056;-63
2022/04/23 09:55:50;;;;;;;4.85;2.45;;;;;;;;;;5093126;28;20040;-63
2022/04/23 09:58:21;;;;;;;6.32;2.63;;;;;;;;;;5041785;28;20083;-63
2022/04/23 10:00:53;;;;;;;5.43;1.98;;;;;;;;;;5074266;28;20503;-64
2022/04/23 10:03:29;;;;;;;4.15;1.92;;;;;;;;;;5077940;28;20059;-63
2022/04/23 10:06:02;;;;;;;4.90;2.10;;;;;;;;;;5113419;28;20402;-63
2022/04/23 10:08:33;;;;;;;7.22;2.88;;;;;;;;;;5070378;28;20056;-63
2022/04/23 10:11:09;;;;;;;5.85;2.30;;;;;;;;;;5036948;28;20079;-64
2022/04/23 10:13:44;;;;;;;26.15;10.85;;;;;;;;;;5070862;28;20052;-63
2022/04/23 10:16:16;;;;;;;54.75;21.67;;;;;;;;;;5070474;28;20048;-63
2022/04/23 10:18:47;;;;;;;42.15;17.42;;;;;;;;;;5050226;28;20055;-63
2022/04/23 10:21:45;;;;;;;26.85;11.23;;;;;;;;;;5034386;28;20060;-63
2022/04/23 10:24:25;;;;;;;13.05;4.93;;;;;;;;;;5050322;28;20060;-63
2022/04/23 10:26:59;;;;;;;6.30;3.00;;;;;;;;;;5010505;28;20054;-64
2022/04/23 10:29:31;;;;;;;6.72;2.63;;;;;;;;;;5010595;28;20054;-63
2022/04/23 10:32:14;;;;;;;6.80;2.15;;;;;;;;;;5010512;28;20572;-64
2022/04/23 10:34:45;;;;;;;4.68;2.13;;;;;;;;;;4971051;28;20054;-63
2022/04/23 10:37:30;;;;;;;5.28;2.00;;;;;;;;;;4920133;29;20056;-63
2022/04/23 10:40:00;;;;;;;4.25;2.30;;;;;;;;;;4920456;28;20418;-63
2022/04/23 10:42:32;;;;;;;5.05;2.40;;;;;;;;;;4952063;28;20067;-64
2022/04/23 10:45:06;;;;;;;7.50;2.38;;;;;;;;;;4920378;29;20058;-63
2022/04/23 10:47:39;;;;;;;4.68;2.38;;;;;;;;;;4952158;28;20054;-63
2022/04/23 10:50:20;;;;;;;9.40;4.43;;;;;;;;;;4920500;29;20078;-64
2022/04/23 10:52:55;;;;;;;10.35;4.90;;;;;;;;;;4936218;28;20051;-63
2022/04/23 10:55:26;;;;;;;11.35;5.03;;;;;;;;;;4955663;28;20086;-64
2022/04/23 10:58:21;;;;;;;11.25;4.30;;;;;;;;;;4990545;28;20062;-63
2022/04/23 11:00:51;;;;;;;10.45;4.90;;;;;;;;;;4990489;28;20537;-63
2022/04/23 11:03:28;;;;;;;9.02;4.63;;;;;;;;;;4990542;28;20142;-64
2022/04/23 11:12:36;;;;;;;13.80;6.82;;;;;;;;;;5010205;28;20064;-64
2022/04/23 11:15:25;;;;;;;15.43;8.35;;;;;;;;;;4981915;28;20051;-64
2022/04/23 11:17:58;;;;;;;15.57;8.55;;;;;;;;;;4990369;28;20054;-64
2022/04/23 11:20:31;;;;;;;22.77;12.48;;;;;;;;;;4990498;28;20414;-64
2022/04/23 11:23:03;;;;;;;22.48;13.68;;;;;;;;;;4974470;28;20074;-64
2022/04/23 11:25:34;;;;;;;20.98;12.80;;;;;;;;;;4990585;28;20150;-64
2022/04/23 11:28:16;;;;;;;11.38;6.47;;;;;;;;;;4974407;28;20061;-63
2022/04/23 11:30:46;;;;;;;12.07;7.13;;;;;;;;;;4990325;28;20058;-64
2022/04/23 11:33:17;;;;;;;13.77;7.88;;;;;;;;;;4990311;28;20050;-64
2022/04/23 11:35:48;;;;;;;13.50;6.32;;;;;;;;;;4990390;28;20158;-64
2022/04/23 11:38:20;;;;;;;8.48;4.80;;;;;;;;;;4973949;28;20104;-64
2022/04/23 11:40:51;;;;;;;9.35;4.45;;;;;;;;;;4990173;28;20061;-63
2022/04/23 11:43:32;;;;;;;6.03;3.20;;;;;;;;;;4990418;28;20062;-64
2022/04/23 11:46:06;;;;;;;3.38;1.95;;;;;;;;;;4990958;28;20046;-64
2022/04/23 11:48:48;;;;;;;4.22;2.20;;;;;;;;;;4997031;28;20057;-64
2022/04/23 11:51:21;;;;;;;3.63;1.33;;;;;;;;;;5013770;28;20065;-64
2022/04/23 11:53:58;;;;;;;2.38;1.25;;;;;;;;;;5019829;28;20504;-64
2022/04/23 12:02:24;;;;;;;1.88;0.90;;;;;;;;;;5132590;27;20374;-63
2022/04/23 12:05:03;;;;;;;3.70;0.73;;;;;;;;;;5130572;28;20055;-66
2022/04/23 12:07:34;;;;;;;1.63;1.00;;;;;;;;;;5107596;28;20055;-63
2022/04/23 12:10:05;;;;;;;4.07;0.65;;;;;;;;;;5073752;28;20047;-64
2022/04/23 12:12:36;;;;;;;1.30;0.65;;;;;;;;;;5073914;28;20052;-63
2022/04/23 12:15:14;;;;;;;2.95;0.70;;;;;;;;;;5107691;28;20039;-63
2022/04/23 12:17:50;;;;;;;0.80;0.50;;;;;;;;;;5107817;28;20517;-63
2022/04/23 12:20:23;;;;;;;1.67;0.65;;;;;;;;;;5107449;28;20044;-64
2022/04/23 12:23:00;;;;;;;1.80;0.80;;;;;;;;;;5107646;28;20059;-63
2022/04/23 12:25:33;;;;;;;2.85;0.82;;;;;;;;;;5066447;28;20423;-63
2022/04/23 12:42:48;;;;;;;1.98;1.00;;;;;;;;;;5066578;28;20492;-64
2022/04/23 12:45:20;;;;;;;1.58;0.65;;;;;;;;;;5088681;28;20510;-64
2022/04/23 12:48:06;;;;;;;0.80;0.50;;;;;;;;;;5107303;28;20039;-64
2022/04/23 12:50:37;;;;;;;1.40;0.68;;;;;;;;;;5107055;28;20070;-64
2022/04/23 12:53:07;;;;;;;1.27;0.50;;;;;;;;;;5106981;28;20044;-64
2022/04/23 12:55:49;;;;;;;1.27;0.60;;;;;;;;;;5090246;28;20991;-64
2022/04/23 12:58:20;;;;;;;2.35;0.57;;;;;;;;;;5107162;28;20058;-64
2022/04/23 13:00:52;;;;;;;1.40;0.60;;;;;;;;;;5056277;28;20119;-65
2022/04/23 13:03:37;;;;;;;0.95;0.52;;;;;;;;;;5120600;28;20084;-64
2022/04/23 13:08:57;;;;;;;1.50;0.73;;;;;;;;;;5110314;28;20077;-64
2022/04/23 13:11:28;;;;;;;0.98;0.63;;;;;;;;;;5127981;28;20379;-65
2022/04/23 13:14:06;;;;;;;1.13;0.52;;;;;;;;;;5115174;28;20067;-64
2022/04/23 13:16:38;;;;;;;2.92;0.70;;;;;;;;;;5115687;28;20044;-65
2022/04/23 13:19:15;;;;;;;;;;;;;;;;;;5116027;28;20048;-64
2022/04/23 13:21:45;;;;;;;1.45;0.70;;;;;;;;;;5115447;28;20379;-64
2022/04/23 13:24:16;;;;;;;0.73;0.40;;;;;;;;;;5115490;28;20047;-64
2022/04/23 13:26:46;;;;;;;1.33;0.50;;;;;;;;;;5115464;28;20070;-64
2022/04/23 13:29:17;;;;;;;1.08;0.50;;;;;;;;;;5115463;28;20044;-64
2022/04/23 13:31:48;;;;;;;0.98;0.40;;;;;;;;;;5096455;28;20075;-64
2022/04/23 13:34:18;;;;;;;1.05;0.50;;;;;;;;;;5080319;28;20063;-64
2022/04/23 13:36:48;;;;;;;0.85;0.63;;;;;;;;;;5115312;28;20054;-65
2022/04/23 13:39:20;;;;;;;1.02;0.38;;;;;;;;;;5080317;28;20079;-64
2022/04/23 13:41:50;;;;;;;3.65;0.45;;;;;;;;;;5113966;28;20036;-64
2022/04/23 13:44:22;;;;;;;1.08;0.50;;;;;;;;;;5096551;28;20055;-65
2022/04/23 13:46:54;;;;;;;0.55;0.40;;;;;;;;;;5115036;28;20039;-65
2022/04/23 13:49:26;;;;;;;0.57;0.40;;;;;;;;;;5114979;28;20039;-65
2022/04/23 13:51:57;;;;;;;1.15;0.60;;;;;;;;;;5114886;28;20051;-65
2022/04/23 13:54:29;;;;;;;1.00;0.40;;;;;;;;;;5114998;28;20483;-65
2022/04/23 13:57:00;;;;;;;0.75;0.30;;;;;;;;;;5114743;28;20047;-65
2022/04/23 13:59:33;;;;;;;0.65;0.40;;;;;;;;;;5078998;28;20047;-65
2022/04/23 14:10:32;;;;;;;0.45;0.30;;;;;;;;;;5071529;28;20071;-65
2022/04/23 14:13:03;;;;;;;0.85;0.30;;;;;;;;;;5023270;28;20056;-65
2022/04/23 14:15:33;;;;;;;0.22;0.20;;;;;;;;;;5051437;28;20056;-65
2022/04/23 14:18:06;;;;;;;1.02;0.30;;;;;;;;;;5051585;28;20061;-64
2022/04/23 14:20:37;;;;;;;1.02;0.93;;;;;;;;;;5035507;28;20064;-63
2022/04/23 14:23:08;;;;;;;0.45;0.30;;;;;;;;;;5011181;28;20421;-64
2022/04/23 14:25:40;;;;;;;0.50;0.40;;;;;;;;;;5011007;28;20095;-64
2022/04/23 14:28:10;;;;;;;0.70;0.40;;;;;;;;;;4963082;28;20050;-64
2022/04/23 14:30:41;;;;;;;0.43;0.30;;;;;;;;;;5011675;28;20076;-64
2022/04/23 14:33:12;;;;;;;1.25;0.50;;;;;;;;;;4991554;28;20085;-64
2022/04/23 14:35:43;;;;;;;0.63;0.30;;;;;;;;;;4972105;28;20082;-64
2022/04/23 14:38:13;;;;;;;0.70;0.40;;;;;;;;;;4956585;28;20168;-65
2022/04/23 14:40:44;;;;;;;1.45;0.30;;;;;;;;;;4952806;28;20087;-64
2022/04/23 14:43:16;;;;;;;3.90;2.00;;;;;;;;;;4952633;28;20062;-64
2022/04/23 14:45:46;;;;;;;0.68;0.40;;;;;;;;;;4921255;29;20427;-64
2022/04/23 14:48:16;;;;;;;0.70;0.43;;;;;;;;;;4984539;28;20054;-64
2022/04/23 14:53:36;;;;;;;2.28;0.60;;;;;;;;;;4984795;28;20050;-63
2022/04/23 14:56:07;;;;;;;0.90;0.80;;;;;;;;;;4991475;28;20054;-63
2022/04/23 14:58:37;;;;;;;0.40;0.35;;;;;;;;;;4991457;28;20073;-65
2022/04/23 15:01:15;;;;;;;0.70;0.40;;;;;;;;;;5004723;28;20045;-63
2022/04/23 15:03:46;;;;;;;1.40;0.30;;;;;;;;;;4946079;28;20068;-64
2022/04/23 15:06:18;;;;;;;1.10;0.47;;;;;;;;;;4990816;28;20521;-64
2022/04/23 15:08:48;;;;;;;1.90;0.30;;;;;;;;;;4958773;28;20061;-63
2022/04/23 15:11:19;;;;;;;0.40;0.30;;;;;;;;;;5005068;28;20053;-64
2022/04/23 15:13:50;;;;;;;0.57;0.47;;;;;;;;;;5010745;28;20054;-63
2022/04/23 15:16:21;;;;;;;0.50;0.20;;;;;;;;;;5010690;28;20053;-63
2022/04/23 15:18:51;;;;;;;0.32;0.20;;;;;;;;;;4961845;28;20382;-63
2022/04/23 15:21:22;;;;;;;0.98;0.63;;;;;;;;;;4996773;28;20448;-63
2022/04/23 15:23:54;;;;;;;0.40;0.30;;;;;;;;;;4990915;28;20058;-64
2022/04/23 15:26:24;;;;;;;0.73;0.40;;;;;;;;;;4990784;28;20523;-63
2022/04/23 15:28:54;;;;;;;1.63;0.50;;;;;;;;;;5018429;28;20058;-64
2022/04/23 15:31:25;;;;;;;3.08;0.30;;;;;;;;;;5049872;28;20057;-64
2022/04/23 15:33:56;;;;;;;0.85;0.60;;;;;;;;;;5033681;28;20057;-65
2022/04/23 15:36:27;;;;;;;1.42;0.80;;;;;;;;;;5049785;28;20053;-63
2022/04/23 15:39:00;;;;;;;1.73;0.40;;;;;;;;;;5039163;28;20064;-64
2022/04/23 15:41:31;;;;;;;0.93;0.38;;;;;;;;;;4997283;28;20064;-64
2022/04/23 15:44:01;;;;;;;0.70;0.40;;;;;;;;;;5029682;28;20068;-65
2022/04/23 15:46:32;;;;;;;1.75;0.50;;;;;;;;;;5010105;28;20053;-64
2022/04/23 15:49:03;;;;;;;0.70;0.30;;;;;;;;;;4994219;28;20057;-64
2022/04/23 15:51:33;;;;;;;1.10;0.60;;;;;;;;;;4961636;28;20058;-64
2022/04/23 15:54:04;;;;;;;1.00;0.43;;;;;;;;;;5010329;28;20417;-64
2022/04/23 15:56:36;;;;;;;1.55;0.40;;;;;;;;;;5010288;28;20057;-64
2022/04/23 15:59:07;;;;;;;0.40;0.40;;;;;;;;;;4999052;28;20081;-64
2022/04/23 16:01:38;;;;;;;0.43;0.40;;;;;;;;;;5006578;28;20062;-64
2022/04/23 16:04:09;;;;;;;0.80;0.40;;;;;;;;;;4964514;28;20050;-64
2022/04/23 16:06:40;;;;;;;1.02;0.40;;;;;;;;;;4971300;28;20380;-62
2022/04/23 16:09:10;;;;;;;1.90;0.63;;;;;;;;;;5002911;28;20057;-64
2022/04/23 16:11:41;;;;;;;0.90;0.70;;;;;;;;;;5029906;28;20053;-64